Time;durP1;ratioP1;P1;durP2;ratioP2;P2;SDS_P1;SDS_P2;PMS_P1;PMS_P2;Temp;Humidity;BMP_temperature;BMP_pressure;BME280_temperature;BME280_humidity;BME280_pressure;Samples;Min_cycle;Max_cycle;Signal;HPM_P1;HPM_P2
2021/06/22 00:01:40;;;;;;;12.03;5.23;;;;;;;;;;5115935;28;20438;-68
2021/06/22 00:04:07;;;;;;;7.80;4.90;;;;;;;;;;5115640;28;20447;-68
2021/06/22 00:06:35;;;;;;;11.10;5.50;;;;;;;;;;5115640;28;20442;-68
2021/06/22 00:09:02;;;;;;;15.17;5.63;;;;;;;;;;5115669;28;20533;-68
2021/06/22 00:11:30;;;;;;;14.10;5.23;;;;;;;;;;5115729;28;20797;-68
2021/06/22 00:13:58;;;;;;;10.07;5.70;;;;;;;;;;5115143;28;20439;-68
2021/06/22 00:16:26;;;;;;;10.37;5.30;;;;;;;;;;5116032;28;20483;-69
2021/06/22 00:18:53;;;;;;;8.90;5.60;;;;;;;;;;5115750;28;20425;-69
2021/06/22 00:21:20;;;;;;;12.93;4.73;;;;;;;;;;5115379;28;20512;-68
2021/06/22 00:23:47;;;;;;;6.47;4.67;;;;;;;;;;5114990;28;20431;-69
2021/06/22 00:26:14;;;;;;;11.20;5.67;;;;;;;;;;5115205;28;20447;-70
2021/06/22 00:28:43;;;;;;;11.43;5.20;;;;;;;;;;5115191;28;20435;-69
2021/06/22 00:31:12;;;;;;;13.70;5.13;;;;;;;;;;5114827;28;20959;-69
2021/06/22 00:33:39;;;;;;;10.27;5.50;;;;;;;;;;5115130;28;20446;-69
2021/06/22 00:36:07;;;;;;;7.50;4.70;;;;;;;;;;5114968;28;20474;-68
2021/06/22 00:38:34;;;;;;;14.23;5.83;;;;;;;;;;5115076;28;20446;-68
2021/06/22 00:41:01;;;;;;;12.47;5.43;;;;;;;;;;5115129;28;20813;-68
2021/06/22 00:43:28;;;;;;;11.43;6.10;;;;;;;;;;5115084;28;20439;-67
2021/06/22 00:45:57;;;;;;;9.53;6.10;;;;;;;;;;5114816;28;20446;-69
2021/06/22 00:48:24;;;;;;;11.67;5.80;;;;;;;;;;5114813;28;20434;-69
2021/06/22 00:50:51;;;;;;;16.43;5.97;;;;;;;;;;5114984;28;20449;-68
2021/06/22 00:53:18;;;;;;;9.80;5.60;;;;;;;;;;5114765;28;20449;-69
2021/06/22 00:55:45;;;;;;;13.20;5.80;;;;;;;;;;5113866;28;20475;-69
2021/06/22 00:58:13;;;;;;;9.80;5.77;;;;;;;;;;5114532;28;20439;-69
2021/06/22 01:00:40;;;;;;;14.60;5.63;;;;;;;;;;5114363;28;20474;-68
2021/06/22 01:03:08;;;;;;;10.73;5.03;;;;;;;;;;5115018;28;20449;-68
2021/06/22 01:05:35;;;;;;;8.50;5.67;;;;;;;;;;5114189;28;20529;-68
2021/06/22 01:08:03;;;;;;;12.13;5.97;;;;;;;;;;5114210;28;20438;-67
2021/06/22 01:10:30;;;;;;;13.33;5.83;;;;;;;;;;5114690;28;20438;-68
2021/06/22 01:12:58;;;;;;;12.57;6.37;;;;;;;;;;5114450;28;20487;-68
2021/06/22 01:15:27;;;;;;;7.10;5.03;;;;;;;;;;5114086;28;20474;-68
2021/06/22 01:17:54;;;;;;;14.83;6.40;;;;;;;;;;5114640;28;20474;-68
2021/06/22 01:20:23;;;;;;;15.67;5.47;;;;;;;;;;5114056;28;20956;-68
2021/06/22 01:22:52;;;;;;;9.97;6.70;;;;;;;;;;5114767;28;20786;-68
2021/06/22 01:25:19;;;;;;;9.50;5.70;;;;;;;;;;5114469;28;20446;-68
2021/06/22 01:27:46;;;;;;;12.33;6.90;;;;;;;;;;5114616;28;20449;-69
2021/06/22 01:30:14;;;;;;;9.00;5.53;;;;;;;;;;5114211;28;20445;-68
2021/06/22 01:32:41;;;;;;;17.50;6.00;;;;;;;;;;5114107;28;20446;-68
2021/06/22 01:35:09;;;;;;;7.77;5.53;;;;;;;;;;5114515;28;20525;-68
2021/06/22 01:37:36;;;;;;;14.50;5.40;;;;;;;;;;5114005;28;20474;-68
2021/06/22 01:40:07;;;;;;;12.10;5.20;;;;;;;;;;5113765;28;20927;-69
2021/06/22 01:42:34;;;;;;;10.00;6.17;;;;;;;;;;5114144;28;20429;-69
2021/06/22 01:45:02;;;;;;;8.70;6.07;;;;;;;;;;5114027;28;20442;-69
2021/06/22 01:47:29;;;;;;;12.00;6.00;;;;;;;;;;5114337;28;20468;-69
2021/06/22 01:49:59;;;;;;;9.33;5.47;;;;;;;;;;5113979;28;20503;-68
2021/06/22 01:52:27;;;;;;;9.53;5.93;;;;;;;;;;5113995;28;20759;-68
2021/06/22 01:54:54;;;;;;;11.33;6.13;;;;;;;;;;5113806;28;20430;-68
2021/06/22 01:57:23;;;;;;;17.40;7.20;;;;;;;;;;5114255;28;20478;-68
2021/06/22 01:59:50;;;;;;;13.33;6.90;;;;;;;;;;5113817;28;20445;-68
2021/06/22 02:02:18;;;;;;;7.90;5.17;;;;;;;;;;5113529;28;20525;-68
2021/06/22 02:04:45;;;;;;;15.53;6.33;;;;;;;;;;5114051;28;20928;-68
2021/06/22 02:07:12;;;;;;;10.97;6.43;;;;;;;;;;5114357;28;20446;-68
2021/06/22 02:09:40;;;;;;;7.47;5.60;;;;;;;;;;5117941;28;20445;-67
2021/06/22 02:12:07;;;;;;;7.20;5.97;;;;;;;;;;5118205;28;20461;-68
2021/06/22 02:14:36;;;;;;;8.50;6.87;;;;;;;;;;5117870;28;20445;-68
2021/06/22 02:17:03;;;;;;;10.90;6.80;;;;;;;;;;5117696;28;20854;-68
2021/06/22 02:19:30;;;;;;;16.00;7.00;;;;;;;;;;5117434;28;20915;-68
2021/06/22 02:21:57;;;;;;;12.53;7.37;;;;;;;;;;5118375;28;20470;-68
2021/06/22 02:24:25;;;;;;;18.90;7.00;;;;;;;;;;5123843;28;20502;-68
2021/06/22 02:26:52;;;;;;;8.87;6.60;;;;;;;;;;5120108;28;20450;-68
2021/06/22 02:29:19;;;;;;;16.33;6.50;;;;;;;;;;5117614;28;20439;-68
2021/06/22 02:31:48;;;;;;;25.27;7.93;;;;;;;;;;5117509;28;20452;-68
2021/06/22 02:34:15;;;;;;;12.77;6.63;;;;;;;;;;5117209;28;20439;-68
2021/06/22 02:36:43;;;;;;;19.53;7.83;;;;;;;;;;5117007;28;21020;-68
2021/06/22 02:39:10;;;;;;;15.90;7.27;;;;;;;;;;5117367;28;20438;-68
2021/06/22 02:41:37;;;;;;;15.33;7.30;;;;;;;;;;5117583;28;20440;-67
2021/06/22 02:44:04;;;;;;;14.83;6.40;;;;;;;;;;5116892;28;20441;-67
2021/06/22 02:46:31;;;;;;;14.60;7.40;;;;;;;;;;5116821;28;20493;-68
2021/06/22 02:49:00;;;;;;;10.37;8.33;;;;;;;;;;5117095;28;20547;-68
2021/06/22 02:51:27;;;;;;;16.83;8.37;;;;;;;;;;5116817;28;20451;-68
2021/06/22 02:53:54;;;;;;;15.03;7.40;;;;;;;;;;5117076;28;20448;-68
2021/06/22 02:56:22;;;;;;;15.03;8.80;;;;;;;;;;5116630;28;20572;-68
2021/06/22 02:58:49;;;;;;;10.30;7.00;;;;;;;;;;5117069;28;20431;-68
2021/06/22 03:01:16;;;;;;;15.20;8.33;;;;;;;;;;5116610;28;20528;-68
2021/06/22 03:03:43;;;;;;;13.00;7.67;;;;;;;;;;5116567;28;20430;-68
2021/06/22 03:06:12;;;;;;;8.00;7.13;;;;;;;;;;5116468;28;20449;-68
2021/06/22 03:08:39;;;;;;;18.63;9.40;;;;;;;;;;5116806;28;20434;-68
2021/06/22 03:11:06;;;;;;;14.20;9.00;;;;;;;;;;5116437;28;20481;-68
2021/06/22 03:13:33;;;;;;;13.73;8.50;;;;;;;;;;5117088;28;20442;-68
2021/06/22 03:16:00;;;;;;;15.60;8.80;;;;;;;;;;5117049;28;20435;-68
2021/06/22 03:18:27;;;;;;;15.00;8.93;;;;;;;;;;5116606;28;20478;-68
2021/06/22 03:20:55;;;;;;;10.13;7.40;;;;;;;;;;5115862;28;20438;-68
2021/06/22 03:23:23;;;;;;;14.23;8.53;;;;;;;;;;5117579;28;20445;-68
2021/06/22 03:25:50;;;;;;;16.27;8.27;;;;;;;;;;5116989;28;20430;-68
2021/06/22 03:28:18;;;;;;;20.87;8.67;;;;;;;;;;5116350;28;20987;-67
2021/06/22 03:30:46;;;;;;;14.87;9.50;;;;;;;;;;5117195;28;20439;-67
2021/06/22 03:33:13;;;;;;;12.90;8.00;;;;;;;;;;5116875;28;20435;-67
2021/06/22 03:35:40;;;;;;;10.70;8.47;;;;;;;;;;5115935;28;20441;-67
2021/06/22 03:38:08;;;;;;;16.93;8.00;;;;;;;;;;5115894;28;20454;-68
2021/06/22 03:40:36;;;;;;;16.77;9.43;;;;;;;;;;5116316;28;20442;-68
2021/06/22 03:43:04;;;;;;;12.53;8.03;;;;;;;;;;5116101;28;20870;-67
2021/06/22 03:45:32;;;;;;;15.90;7.80;;;;;;;;;;5116012;28;20442;-67
2021/06/22 03:47:59;;;;;;;14.10;9.03;;;;;;;;;;5116263;28;20576;-67
2021/06/22 03:50:26;;;;;;;11.00;9.10;;;;;;;;;;5115653;28;20431;-67
2021/06/22 03:52:54;;;;;;;13.90;9.00;;;;;;;;;;5115914;28;20438;-67
2021/06/22 03:55:30;;;;;;;15.43;8.33;;;;;;;;;;5115856;28;20446;-68
2021/06/22 03:57:59;;;;;;;14.97;9.10;;;;;;;;;;5115969;28;20435;-67
2021/06/22 04:00:26;;;;;;;12.60;8.70;;;;;;;;;;5115734;28;20541;-67
2021/06/22 04:02:53;;;;;;;15.40;8.93;;;;;;;;;;5115684;28;20465;-68
2021/06/22 04:05:21;;;;;;;14.20;8.00;;;;;;;;;;5115609;28;20958;-68
2021/06/22 04:07:48;;;;;;;16.37;9.37;;;;;;;;;;5115491;28;20481;-68
2021/06/22 04:10:15;;;;;;;17.80;8.63;;;;;;;;;;5116336;28;20443;-68
2021/06/22 04:12:43;;;;;;;12.90;7.97;;;;;;;;;;5115575;28;20441;-68
2021/06/22 04:15:11;;;;;;;17.47;8.10;;;;;;;;;;5115422;28;20525;-68
2021/06/22 04:17:39;;;;;;;18.90;8.43;;;;;;;;;;5115324;28;20474;-68
2021/06/22 04:20:07;;;;;;;11.77;7.53;;;;;;;;;;5115040;28;20522;-68
2021/06/22 04:22:34;;;;;;;14.10;8.57;;;;;;;;;;5115306;28;20442;-68
2021/06/22 04:25:01;;;;;;;15.70;7.93;;;;;;;;;;5115044;28;20434;-69
2021/06/22 04:27:28;;;;;;;11.80;7.50;;;;;;;;;;5114811;28;20477;-68
2021/06/22 04:29:55;;;;;;;14.60;7.93;;;;;;;;;;5115349;28;20525;-68
2021/06/22 04:32:24;;;;;;;9.73;7.60;;;;;;;;;;5115122;28;20526;-68
2021/06/22 04:34:51;;;;;;;12.77;8.40;;;;;;;;;;5114914;28;20935;-68
2021/06/22 04:37:19;;;;;;;15.87;8.30;;;;;;;;;;5128602;27;20452;-68
2021/06/22 04:39:48;;;;;;;9.47;6.73;;;;;;;;;;5135092;27;20452;-68
2021/06/22 04:42:16;;;;;;;13.73;7.90;;;;;;;;;;5135444;27;20437;-68
2021/06/22 04:44:43;;;;;;;10.90;6.90;;;;;;;;;;5135134;27;20533;-68
2021/06/22 04:47:10;;;;;;;18.20;7.77;;;;;;;;;;5135058;27;21006;-68
2021/06/22 04:49:39;;;;;;;10.60;7.17;;;;;;;;;;5135373;27;20445;-68
2021/06/22 04:52:06;;;;;;;11.47;7.00;;;;;;;;;;5134901;27;20442;-68
2021/06/22 04:54:34;;;;;;;14.17;6.80;;;;;;;;;;5134949;27;20533;-68
2021/06/22 04:57:01;;;;;;;11.77;7.40;;;;;;;;;;5135238;27;20849;-68
2021/06/22 04:59:28;;;;;;;11.37;7.37;;;;;;;;;;5134886;27;20793;-69
2021/06/22 05:01:55;;;;;;;12.47;7.83;;;;;;;;;;5135080;27;20797;-68
2021/06/22 05:04:22;;;;;;;16.40;7.77;;;;;;;;;;5134925;27;20944;-68
2021/06/22 05:06:51;;;;;;;22.20;7.97;;;;;;;;;;5122339;27;20534;-68
2021/06/22 05:09:18;;;;;;;18.10;7.67;;;;;;;;;;5114527;28;20522;-68
2021/06/22 05:11:46;;;;;;;11.50;6.83;;;;;;;;;;5114133;28;20942;-68
2021/06/22 05:14:13;;;;;;;9.43;6.57;;;;;;;;;;5113903;28;20439;-67
2021/06/22 05:16:40;;;;;;;14.03;8.03;;;;;;;;;;5114614;28;20227;-68
2021/06/22 05:19:07;;;;;;;17.00;8.20;;;;;;;;;;5114284;28;20438;-68
2021/06/22 05:21:35;;;;;;;15.90;7.13;;;;;;;;;;5124450;27;20445;-69
2021/06/22 05:24:03;;;;;;;16.63;8.60;;;;;;;;;;5134176;27;20938;-69
2021/06/22 05:26:31;;;;;;;12.93;7.07;;;;;;;;;;5124674;27;20457;-68
2021/06/22 05:28:58;;;;;;;10.70;7.63;;;;;;;;;;5113952;28;20470;-68
2021/06/22 05:31:26;;;;;;;17.00;10.50;;;;;;;;;;5114093;28;20962;-68
2021/06/22 05:33:53;;;;;;;10.90;7.37;;;;;;;;;;5113651;28;20440;-70
2021/06/22 05:36:20;;;;;;;12.03;7.13;;;;;;;;;;5114095;28;20523;-68
2021/06/22 05:38:47;;;;;;;9.87;6.37;;;;;;;;;;5114345;28;20434;-68
2021/06/22 05:41:16;;;;;;;13.13;7.90;;;;;;;;;;5113670;28;20516;-68
2021/06/22 05:43:43;;;;;;;8.50;6.70;;;;;;;;;;5113081;28;20534;-68
2021/06/22 05:46:10;;;;;;;10.73;6.73;;;;;;;;;;5113955;28;20442;-71
2021/06/22 05:48:37;;;;;;;14.63;7.40;;;;;;;;;;5113923;28;20549;-66
2021/06/22 05:51:04;;;;;;;11.50;7.27;;;;;;;;;;5113902;28;20431;-66
2021/06/22 05:53:32;;;;;;;20.27;7.43;;;;;;;;;;5114003;28;20439;-65
2021/06/22 05:55:59;;;;;;;15.07;6.73;;;;;;;;;;5114036;28;20526;-67
2021/06/22 05:58:28;;;;;;;14.03;7.10;;;;;;;;;;5115214;28;20516;-67
2021/06/22 06:00:55;;;;;;;11.40;6.37;;;;;;;;;;5119348;28;20446;-66
2021/06/22 06:03:22;;;;;;;15.33;7.10;;;;;;;;;;5114286;28;20439;-66
2021/06/22 06:05:49;;;;;;;9.93;6.10;;;;;;;;;;5113797;28;20445;-66
2021/06/22 06:08:16;;;;;;;10.07;6.17;;;;;;;;;;5114551;28;20472;-66
2021/06/22 06:10:43;;;;;;;13.40;7.13;;;;;;;;;;5114023;28;20521;-66
2021/06/22 06:13:11;;;;;;;12.60;6.73;;;;;;;;;;5113521;28;20440;-66
2021/06/22 06:15:39;;;;;;;9.83;5.60;;;;;;;;;;5113984;28;20470;-66
2021/06/22 06:18:07;;;;;;;13.50;7.40;;;;;;;;;;5113826;28;20604;-67
2021/06/22 06:20:34;;;;;;;10.73;6.10;;;;;;;;;;5113799;28;20476;-66
2021/06/22 06:23:01;;;;;;;12.90;5.70;;;;;;;;;;5113377;28;20531;-66
2021/06/22 06:25:28;;;;;;;15.27;5.63;;;;;;;;;;5113861;28;20885;-66
2021/06/22 06:27:57;;;;;;;14.40;6.23;;;;;;;;;;5113916;28;20565;-66
2021/06/22 06:30:26;;;;;;;12.73;5.20;;;;;;;;;;5113539;28;20488;-67
2021/06/22 06:32:55;;;;;;;7.63;4.70;;;;;;;;;;5113984;28;20777;-66
2021/06/22 06:35:22;;;;;;;13.73;4.80;;;;;;;;;;5113408;28;20468;-66
2021/06/22 06:37:49;;;;;;;9.53;3.73;;;;;;;;;;5113046;28;20935;-67
2021/06/22 06:40:17;;;;;;;14.70;3.97;;;;;;;;;;5113455;28;20516;-67
2021/06/22 06:42:45;;;;;;;8.00;4.13;;;;;;;;;;5113338;28;21056;-66
2021/06/22 06:45:12;;;;;;;11.93;5.40;;;;;;;;;;5113396;28;20490;-67
2021/06/22 06:47:39;;;;;;;10.77;5.00;;;;;;;;;;5113693;28;20834;-66
2021/06/22 06:50:09;;;;;;;8.00;6.33;;;;;;;;;;5113834;28;20441;-67
2021/06/22 06:52:36;;;;;;;6.10;3.80;;;;;;;;;;5113301;28;20472;-67
2021/06/22 06:55:04;;;;;;;10.10;3.87;;;;;;;;;;5115189;28;20534;-67
2021/06/22 06:57:31;;;;;;;10.93;4.10;;;;;;;;;;5116679;28;20947;-67
2021/06/22 06:59:58;;;;;;;11.67;4.40;;;;;;;;;;5117046;28;20447;-67
2021/06/22 07:02:25;;;;;;;7.20;3.83;;;;;;;;;;5116902;28;20525;-67
2021/06/22 07:04:52;;;;;;;12.37;4.93;;;;;;;;;;5116562;28;20927;-67
2021/06/22 07:07:21;;;;;;;6.87;3.30;;;;;;;;;;5116783;28;20442;-67
2021/06/22 07:09:48;;;;;;;9.77;3.37;;;;;;;;;;5116391;28;20435;-66
2021/06/22 07:12:15;;;;;;;12.17;3.90;;;;;;;;;;5117253;28;20472;-66
2021/06/22 07:14:42;;;;;;;7.63;3.60;;;;;;;;;;5116678;28;20517;-66
2021/06/22 07:17:10;;;;;;;12.40;3.37;;;;;;;;;;5116442;28;20463;-66
2021/06/22 07:19:37;;;;;;;6.60;3.90;;;;;;;;;;5116277;28;20478;-66
2021/06/22 07:22:04;;;;;;;10.50;3.57;;;;;;;;;;5116131;28;20431;-66
2021/06/22 07:24:33;;;;;;;11.87;3.90;;;;;;;;;;5116073;28;20443;-66
2021/06/22 07:27:00;;;;;;;8.23;3.47;;;;;;;;;;5116080;28;20443;-67
2021/06/22 07:29:27;;;;;;;6.50;3.30;;;;;;;;;;5116058;28;20840;-67
2021/06/22 07:31:54;;;;;;;7.27;3.40;;;;;;;;;;5116380;28;20529;-67
2021/06/22 07:34:22;;;;;;;9.30;3.90;;;;;;;;;;5116027;28;20976;-67
2021/06/22 07:36:49;;;;;;;8.47;3.57;;;;;;;;;;5116416;28;20440;-66
2021/06/22 07:39:16;;;;;;;10.17;3.90;;;;;;;;;;5116197;28;20455;-67
2021/06/22 07:41:45;;;;;;;12.23;3.90;;;;;;;;;;5115903;28;20443;-66
2021/06/22 07:44:12;;;;;;;8.27;4.57;;;;;;;;;;5116132;28;20441;-67
2021/06/22 07:46:39;;;;;;;18.70;4.80;;;;;;;;;;5116509;28;20455;-66
2021/06/22 07:49:06;;;;;;;9.27;4.77;;;;;;;;;;5115925;28;20474;-67
2021/06/22 07:51:33;;;;;;;6.63;3.33;;;;;;;;;;5115908;28;20932;-67
2021/06/22 07:54:00;;;;;;;10.67;4.70;;;;;;;;;;5115893;28;20514;-66
2021/06/22 07:56:28;;;;;;;16.70;4.53;;;;;;;;;;5116031;28;20436;-66
2021/06/22 07:58:56;;;;;;;8.10;3.97;;;;;;;;;;5115490;28;20533;-67
2021/06/22 08:01:23;;;;;;;11.57;4.00;;;;;;;;;;5115798;28;20803;-66
2021/06/22 08:03:51;;;;;;;7.50;3.80;;;;;;;;;;5115416;28;20474;-66
2021/06/22 08:06:18;;;;;;;6.63;4.23;;;;;;;;;;5115423;28;20870;-66
2021/06/22 08:08:45;;;;;;;8.17;4.50;;;;;;;;;;5116076;28;20810;-66
2021/06/22 08:11:12;;;;;;;6.40;3.60;;;;;;;;;;5115502;28;20447;-67
2021/06/22 08:13:40;;;;;;;17.17;4.90;;;;;;;;;;5115564;28;20488;-67
2021/06/22 08:16:09;;;;;;;6.57;3.90;;;;;;;;;;5115659;28;20435;-67
2021/06/22 08:18:36;;;;;;;8.67;4.87;;;;;;;;;;5115893;28;20483;-66
2021/06/22 08:21:04;;;;;;;7.93;3.73;;;;;;;;;;5115346;28;20526;-66
2021/06/22 08:23:32;;;;;;;7.03;5.10;;;;;;;;;;5115319;28;20543;-66
2021/06/22 08:25:59;;;;;;;9.90;4.13;;;;;;;;;;5115166;28;20503;-66
2021/06/22 08:28:27;;;;;;;10.67;6.17;;;;;;;;;;5115319;28;20930;-66
2021/06/22 08:30:54;;;;;;;7.47;4.00;;;;;;;;;;5114902;28;20481;-67
2021/06/22 08:33:23;;;;;;;5.77;4.17;;;;;;;;;;5115273;28;20434;-67
2021/06/22 08:35:50;;;;;;;5.90;3.90;;;;;;;;;;5115180;28;20530;-67
2021/06/22 08:38:17;;;;;;;7.17;3.93;;;;;;;;;;5114689;28;20509;-66
2021/06/22 08:40:46;;;;;;;6.27;4.50;;;;;;;;;;5115425;28;20838;-66
2021/06/22 08:43:14;;;;;;;6.37;4.17;;;;;;;;;;5114891;28;20995;-66
2021/06/22 08:45:42;;;;;;;11.03;4.77;;;;;;;;;;5114613;28;20443;-66
2021/06/22 08:48:10;;;;;;;4.70;4.20;;;;;;;;;;5114739;28;20882;-67
2021/06/22 08:50:40;;;;;;;8.63;4.87;;;;;;;;;;5114829;28;20500;-67
2021/06/22 08:53:07;;;;;;;14.33;5.00;;;;;;;;;;5115120;28;20445;-66
2021/06/22 08:55:35;;;;;;;4.70;4.10;;;;;;;;;;5114881;28;20467;-67
2021/06/22 08:58:03;;;;;;;8.63;4.50;;;;;;;;;;5114405;28;20434;-67
2021/06/22 09:00:31;;;;;;;10.07;3.83;;;;;;;;;;5114639;28;20447;-66
2021/06/22 09:03:02;;;;;;;6.50;3.50;;;;;;;;;;5114542;28;20439;-66
2021/06/22 09:05:30;;;;;;;8.23;5.27;;;;;;;;;;5114576;28;20435;-67
2021/06/22 09:07:59;;;;;;;8.30;4.70;;;;;;;;;;5114236;28;20621;-66
2021/06/22 09:10:27;;;;;;;9.47;4.33;;;;;;;;;;5114204;28;20559;-66
2021/06/22 09:12:54;;;;;;;6.70;4.87;;;;;;;;;;5114593;28;20439;-67
2021/06/22 09:15:23;;;;;;;16.47;4.50;;;;;;;;;;5114403;28;20522;-66
2021/06/22 09:17:51;;;;;;;11.40;5.00;;;;;;;;;;5113876;28;20472;-67
2021/06/22 09:20:34;;;;;;;8.33;4.47;;;;;;;;;;5113918;28;20470;-66
2021/06/22 09:23:17;;;;;;;6.27;3.80;;;;;;;;;;5114908;28;20512;-67
2021/06/22 09:25:44;;;;;;;6.63;4.40;;;;;;;;;;5113949;28;20423;-66
2021/06/22 09:28:12;;;;;;;6.13;3.83;;;;;;;;;;5113791;28;20449;-67
2021/06/22 09:30:44;;;;;;;8.50;4.00;;;;;;;;;;5113863;28;20449;-67
2021/06/22 09:33:18;;;;;;;5.67;3.93;;;;;;;;;;5114494;28;20440;-67
2021/06/22 09:35:45;;;;;;;6.60;3.70;;;;;;;;;;5114778;28;20490;-67
2021/06/22 09:38:13;;;;;;;11.73;4.00;;;;;;;;;;5113639;28;20446;-67
2021/06/22 09:40:42;;;;;;;7.83;4.50;;;;;;;;;;5114788;28;20760;-67
2021/06/22 09:43:09;;;;;;;4.53;3.60;;;;;;;;;;5114368;28;20442;-66
2021/06/22 09:45:37;;;;;;;6.50;4.00;;;;;;;;;;5113710;28;20447;-66
2021/06/22 09:48:05;;;;;;;4.70;4.07;;;;;;;;;;5114279;28;20456;-66
2021/06/22 09:50:37;;;;;;;4.30;3.20;;;;;;;;;;5113495;28;20474;-67
2021/06/22 09:53:23;;;;;;;8.57;4.43;;;;;;;;;;5114110;28;20446;-66
2021/06/22 09:55:52;;;;;;;9.77;4.30;;;;;;;;;;5113575;28;20535;-66
2021/06/22 09:58:35;;;;;;;12.60;4.47;;;;;;;;;;5113757;28;20444;-66
2021/06/22 10:01:02;;;;;;;7.80;3.60;;;;;;;;;;5114440;28;20426;-66
2021/06/22 10:03:35;;;;;;;4.80;3.97;;;;;;;;;;5113781;28;20445;-66
2021/06/22 10:06:06;;;;;;;6.83;4.63;;;;;;;;;;5113968;28;20414;-67
2021/06/22 10:08:48;;;;;;;6.97;4.87;;;;;;;;;;5113861;28;20401;-67
2021/06/22 10:11:30;;;;;;;8.80;5.87;;;;;;;;;;5114105;28;20455;-66
2021/06/22 10:13:58;;;;;;;8.97;4.57;;;;;;;;;;5113999;28;20514;-66
2021/06/22 10:16:26;;;;;;;5.23;4.00;;;;;;;;;;5113110;28;20476;-67
2021/06/22 10:18:53;;;;;;;6.77;4.20;;;;;;;;;;5114029;28;20464;-66
2021/06/22 10:21:21;;;;;;;5.10;4.13;;;;;;;;;;5113362;28;20530;-67
2021/06/22 10:23:49;;;;;;;7.60;4.10;;;;;;;;;;5113635;28;20439;-67
2021/06/22 10:26:16;;;;;;;7.50;4.77;;;;;;;;;;5113897;28;20478;-65
2021/06/22 10:28:45;;;;;;;7.80;4.20;;;;;;;;;;5114925;28;20503;-65
2021/06/22 10:31:13;;;;;;;4.17;3.47;;;;;;;;;;5117483;28;20450;-66
2021/06/22 10:33:40;;;;;;;7.80;5.23;;;;;;;;;;5117085;28;20480;-66
2021/06/22 10:36:07;;;;;;;8.20;4.10;;;;;;;;;;5117670;28;20535;-66
2021/06/22 10:38:36;;;;;;;4.57;3.83;;;;;;;;;;5117334;28;20451;-66
2021/06/22 10:41:04;;;;;;;7.03;4.83;;;;;;;;;;5116920;28;20455;-66
2021/06/22 10:43:35;;;;;;;10.93;3.80;;;;;;;;;;5117148;28;20795;-66
2021/06/22 10:46:05;;;;;;;4.37;3.67;;;;;;;;;;5116866;28;20439;-66
2021/06/22 10:48:43;;;;;;;9.97;4.40;;;;;;;;;;5117428;28;20554;-66
2021/06/22 10:51:31;;;;;;;6.53;4.60;;;;;;;;;;5116964;28;20452;-66
2021/06/22 10:53:58;;;;;;;4.47;4.03;;;;;;;;;;5117075;28;20785;-66
2021/06/22 10:56:26;;;;;;;6.73;4.23;;;;;;;;;;5116679;28;20796;-66
2021/06/22 10:59:11;;;;;;;6.40;5.07;;;;;;;;;;5116892;28;20475;-66
2021/06/22 11:01:59;;;;;;;9.70;4.97;;;;;;;;;;5107007;28;20471;-66
2021/06/22 11:04:26;;;;;;;9.63;5.23;;;;;;;;;;5116707;28;20522;-66
2021/06/22 11:07:20;;;;;;;7.97;4.83;;;;;;;;;;5116453;28;20431;-67
2021/06/22 11:10:05;;;;;;;8.10;6.00;;;;;;;;;;5102563;28;20476;-67
2021/06/22 11:12:45;;;;;;;15.57;4.70;;;;;;;;;;5116617;28;20527;-66
2021/06/22 11:15:13;;;;;;;11.93;5.40;;;;;;;;;;5116351;28;20432;-66
2021/06/22 11:18:01;;;;;;;5.80;5.30;;;;;;;;;;5116653;28;20478;-66
2021/06/22 11:20:31;;;;;;;8.93;5.53;;;;;;;;;;5117192;28;20830;-66
2021/06/22 11:23:21;;;;;;;7.87;5.53;;;;;;;;;;5116631;28;20476;-66
2021/06/22 11:26:00;;;;;;;9.17;5.70;;;;;;;;;;5116141;28;20465;-66
2021/06/22 11:28:28;;;;;;;8.47;6.07;;;;;;;;;;5116781;28;20447;-66
2021/06/22 11:30:57;;;;;;;8.40;6.07;;;;;;;;;;5116713;28;20561;-66
2021/06/22 11:33:38;;;;;;;6.87;5.73;;;;;;;;;;5116393;28;20446;-67
2021/06/22 11:36:24;;;;;;;9.27;5.50;;;;;;;;;;5116799;28;20504;-66
2021/06/22 11:39:07;;;;;;;6.40;4.93;;;;;;;;;;5115935;28;20947;-66
2021/06/22 11:41:34;;;;;;;8.90;5.77;;;;;;;;;;5115441;28;20446;-66
2021/06/22 11:44:20;;;;;;;9.60;6.13;;;;;;;;;;5116481;28;20432;-66
2021/06/22 11:46:47;;;;;;;7.40;5.60;;;;;;;;;;5115683;28;20448;-66
2021/06/22 11:49:19;;;;;;;9.60;6.53;;;;;;;;;;5115732;28;20927;-65
2021/06/22 11:52:04;;;;;;;11.70;6.70;;;;;;;;;;5116247;28;20425;-66
2021/06/22 11:54:51;;;;;;;7.77;6.60;;;;;;;;;;5116519;28;20445;-66
2021/06/22 11:57:18;;;;;;;9.90;6.37;;;;;;;;;;5115910;28;20482;-66
2021/06/22 11:59:46;;;;;;;17.10;6.63;;;;;;;;;;5116300;28;20476;-66
2021/06/22 12:02:14;;;;;;;9.27;7.33;;;;;;;;;;5115851;28;20850;-66
2021/06/22 12:04:45;;;;;;;7.50;6.77;;;;;;;;;;5115396;28;20929;-66
2021/06/22 12:07:12;;;;;;;9.97;6.30;;;;;;;;;;5115766;28;20976;-66
2021/06/22 12:09:40;;;;;;;10.57;7.00;;;;;;;;;;5115819;28;20489;-66
2021/06/22 12:12:08;;;;;;;7.13;6.47;;;;;;;;;;5116052;28;20440;-66
2021/06/22 12:14:35;;;;;;;7.67;6.70;;;;;;;;;;5115548;28;20461;-66
2021/06/22 12:17:13;;;;;;;11.43;7.80;;;;;;;;;;5115264;28;20476;-67
2021/06/22 12:19:40;;;;;;;8.00;7.00;;;;;;;;;;5115463;28;20436;-66
2021/06/22 12:22:12;;;;;;;7.63;6.93;;;;;;;;;;5115068;28;20433;-66
2021/06/22 12:24:39;;;;;;;9.80;7.80;;;;;;;;;;5115004;28;20467;-66
2021/06/22 12:27:07;;;;;;;11.93;7.73;;;;;;;;;;5115257;28;20449;-66
2021/06/22 12:29:34;;;;;;;12.23;8.90;;;;;;;;;;5114850;28;20565;-67
2021/06/22 12:32:03;;;;;;;9.93;6.90;;;;;;;;;;5115217;28;20955;-65
2021/06/22 12:34:31;;;;;;;10.07;8.83;;;;;;;;;;5115218;28;20858;-66
2021/06/22 12:36:58;;;;;;;8.83;7.10;;;;;;;;;;5115598;28;20436;-66
2021/06/22 12:39:36;;;;;;;8.83;7.40;;;;;;;;;;5115467;28;20553;-67
2021/06/22 12:42:04;;;;;;;12.23;8.03;;;;;;;;;;5115662;28;20481;-66
2021/06/22 12:44:34;;;;;;;11.03;7.97;;;;;;;;;;5114965;28;20848;-75
2021/06/22 12:47:04;;;;;;;10.80;8.40;;;;;;;;;;5114930;28;20458;-68
2021/06/22 12:49:33;;;;;;;9.77;8.63;;;;;;;;;;5114537;28;20511;-67
2021/06/22 12:52:02;;;;;;;8.37;7.50;;;;;;;;;;5114823;28;20443;-68
2021/06/22 12:54:32;;;;;;;17.47;9.27;;;;;;;;;;5114321;28;20450;-68
2021/06/22 12:56:59;;;;;;;12.00;9.43;;;;;;;;;;5114289;28;21004;-68
2021/06/22 12:59:28;;;;;;;11.10;9.93;;;;;;;;;;5114653;28;20543;-69
2021/06/22 13:01:55;;;;;;;13.27;10.20;;;;;;;;;;5114324;28;20448;-68
2021/06/22 13:04:23;;;;;;;10.97;9.80;;;;;;;;;;5121261;27;20446;-68
2021/06/22 13:06:51;;;;;;;10.60;9.50;;;;;;;;;;5134480;27;20472;-68
2021/06/22 13:09:20;;;;;;;11.17;10.00;;;;;;;;;;5134852;27;20436;-68
2021/06/22 13:11:53;;;;;;;12.10;11.00;;;;;;;;;;5134289;27;20445;-68
2021/06/22 13:14:21;;;;;;;11.47;10.27;;;;;;;;;;5135122;27;20919;-69
2021/06/22 13:16:56;;;;;;;12.40;11.10;;;;;;;;;;5134691;27;20856;-69
2021/06/22 13:19:24;;;;;;;12.23;11.03;;;;;;;;;;5134718;27;20424;-68
2021/06/22 13:21:53;;;;;;;14.33;12.77;;;;;;;;;;5134848;27;20428;-67
2021/06/22 13:24:40;;;;;;;12.90;11.80;;;;;;;;;;5134599;27;20524;-68
2021/06/22 13:27:10;;;;;;;16.00;11.50;;;;;;;;;;5135162;27;20535;-67
2021/06/22 13:29:50;;;;;;;12.57;11.00;;;;;;;;;;5135079;27;20459;-68
2021/06/22 13:32:25;;;;;;;13.50;12.13;;;;;;;;;;5134972;27;20443;-69
2021/06/22 13:34:52;;;;;;;13.90;12.60;;;;;;;;;;5119906;28;20431;-67
2021/06/22 13:37:19;;;;;;;19.13;13.90;;;;;;;;;;5113792;28;20929;-67
2021/06/22 13:39:53;;;;;;;20.33;15.67;;;;;;;;;;5113953;28;20441;-68
2021/06/22 13:42:24;;;;;;;14.67;13.37;;;;;;;;;;5114312;28;20478;-67
2021/06/22 13:44:52;;;;;;;17.87;14.90;;;;;;;;;;5114261;28;20431;-67
2021/06/22 13:47:33;;;;;;;15.73;13.80;;;;;;;;;;5113903;28;20932;-68
2021/06/22 13:50:12;;;;;;;17.10;11.90;;;;;;;;;;5113398;28;20478;-68
2021/06/22 13:52:44;;;;;;;13.77;11.40;;;;;;;;;;5113633;28;20517;-68
2021/06/22 13:55:12;;;;;;;14.63;13.30;;;;;;;;;;5113947;28;20505;-68
2021/06/22 13:57:41;;;;;;;13.53;12.27;;;;;;;;;;5113925;28;20438;-68
2021/06/22 14:00:09;;;;;;;14.80;13.60;;;;;;;;;;5113809;28;20449;-68
2021/06/22 14:02:36;;;;;;;14.90;13.60;;;;;;;;;;5113560;28;20951;-68
2021/06/22 14:05:04;;;;;;;17.80;15.53;;;;;;;;;;5117647;28;20438;-68
2021/06/22 14:07:32;;;;;;;16.97;15.30;;;;;;;;;;5117930;28;20877;-68
2021/06/22 14:09:59;;;;;;;15.73;14.43;;;;;;;;;;5117964;28;20550;-69
2021/06/22 14:12:26;;;;;;;16.07;14.57;;;;;;;;;;5117696;28;20481;-68
2021/06/22 14:14:55;;;;;;;16.13;13.77;;;;;;;;;;5117574;28;20938;-68
2021/06/22 14:17:22;;;;;;;16.13;14.73;;;;;;;;;;5116326;27;20478;-69
2021/06/22 14:19:49;;;;;;;16.97;15.17;;;;;;;;;;5137664;27;20546;-68
2021/06/22 14:22:16;;;;;;;16.07;14.67;;;;;;;;;;5138212;27;20437;-69
2021/06/22 14:24:44;;;;;;;19.73;16.40;;;;;;;;;;5137809;27;20933;-68
2021/06/22 14:27:11;;;;;;;18.70;16.90;;;;;;;;;;5138161;27;20517;-68
2021/06/22 14:29:38;;;;;;;19.20;17.30;;;;;;;;;;5137780;27;20542;-68
2021/06/22 14:32:07;;;;;;;17.57;15.93;;;;;;;;;;5138092;27;20479;-68
2021/06/22 14:34:34;;;;;;;17.97;16.27;;;;;;;;;;5138115;27;20436;-68
2021/06/22 14:37:02;;;;;;;18.00;16.10;;;;;;;;;;5137673;27;20531;-68
2021/06/22 14:39:29;;;;;;;18.27;16.30;;;;;;;;;;5137675;27;20441;-68
2021/06/22 14:41:56;;;;;;;18.07;16.40;;;;;;;;;;5137539;27;20446;-67
2021/06/22 14:44:23;;;;;;;16.90;15.37;;;;;;;;;;5137910;27;20444;-68